Vilas, Texas
Current Conditions -  °F | °C
As of 9:58 PM on Saturday 22 Nov 2014 (Local Time) from KGRK Reporting Station
Thunderstorm Thunderstorm  
Wind Chill: 56°   Ceiling: 6500
Heat Index: 56°   Visibility: 0.75mi
Dew Point: 55°   Wind: 10mph
Humidity: 97%   Direction: 30°NNE
Pressure: 29.82"   Gusts: NA
Location:  30.8644°N, 97.3623°W
Report Text: KGRK 230358Z AUTO 03009KT 3/4SM R33/3000FT -RA BR VCTS FEW004 OVC065 13/13 A2982 RMK AO2 PK WND 33035/04 LTG DSNT NE-S RAB0302DZB0337E0340 CIG 050 RWY15 SLP095 P0009 T01340129
Loading
Personal Weather Stations






























Interactive Weather Map New forecast layout! Learn more

10-Day Weather Forecast

Advertisements
Track Severe Weather on mobile